Time,TemperatureF,DewpointF,PressureIn,WindDirection,WindDirectionDegrees,WindSpeedMPH,WindSpeedGustMPH,Humidity,HourlyPrecipIn,Conditions,Clouds,dailyrainin,SoftwareType,DateUTC
2013-02-09 00:00:00,5.4,2.6,29.85,SE,143,0.0,0.0,88,0.00,,,0.00,LWC V2.00 B2112,2013-02-09 09:00:00,
2013-02-09 00:05:00,4.9,2.1,29.85,SE,143,0.0,0.0,88,0.00,,,0.00,LWC V2.00 B2112,2013-02-09 09:05:00,
2013-02-09 00:10:00,4.4,1.6,29.85,SE,142,0.0,0.0,88,0.00,,,0.00,LWC V2.00 B2112,2013-02-09 09:10:00,
2013-02-09 00:15:00,4.1,1.4,29.85,SE,142,0.0,0.0,88,0.00,,,0.00,LWC V2.00 B2112,2013-02-09 09:15:00,
2013-02-09 00:20:00,4.0,1.3,29.85,SE,143,0.0,0.0,88,0.00,,,0.00,LWC V2.00 B2112,2013-02-09 09:20:00,
2013-02-09 00:25:00,3.8,1.1,29.85,SE,143,0.0,0.0,88,0.00,,,0.00,LWC V2.00 B2112,2013-02-09 09:25:00,
2013-02-09 00:30:00,3.9,1.2,29.85,SE,142,0.0,0.0,88,0.00,,,0.00,LWC V2.00 B2112,2013-02-09 09:30:00,
2013-02-09 00:35:00,4.0,1.3,29.85,SE,142,0.0,0.0,88,0.00,,,0.00,LWC V2.00 B2112,2013-02-09 09:35:00,
2013-02-09 00:40:00,4.1,1.4,29.85,SE,143,0.0,0.0,88,0.00,,,0.00,LWC V2.00 B2112,2013-02-09 09:40:00,
2013-02-09 00:45:00,4.4,1.6,29.85,SE,142,0.0,0.0,88,0.00,,,0.00,LWC V2.00 B2112,2013-02-09 09:45:00,
2013-02-09 00:50:00,4.4,1.6,29.84,SE,142,0.0,0.0,88,0.00,,,0.00,LWC V2.00 B2112,2013-02-09 09:50:00,
2013-02-09 00:55:00,4.4,1.6,29.84,SE,143,0.0,0.0,88,0.00,,,0.00,LWC V2.00 B2112,2013-02-09 09:55:00,
2013-02-09 01:00:00,4.4,1.6,29.84,SE,143,0.0,0.0,88,0.00,,,0.00,LWC V2.00 B2112,2013-02-09 10:00:00,
2013-02-09 01:05:00,4.6,1.8,29.84,SE,143,0.0,0.0,88,0.00,,,0.00,LWC V2.00 B2112,2013-02-09 10:05:00,
2013-02-09 01:10:00,4.6,1.8,29.84,SE,143,0.0,0.0,88,0.00,,,0.00,LWC V2.00 B2112,2013-02-09 10:10:00,
2013-02-09 01:15:00,4.6,1.8,29.84,SE,143,0.0,0.0,88,0.00,,,0.00,LWC V2.00 B2112,2013-02-09 10:15:00,
2013-02-09 01:20:00,4.4,1.6,29.84,SE,142,0.0,0.0,88,0.00,,,0.00,LWC V2.00 B2112,2013-02-09 10:20:00,
2013-02-09 01:25:00,3.8,1.1,29.84,SE,142,0.0,0.0,88,0.00,,,0.00,LWC V2.00 B2112,2013-02-09 10:25:00,
2013-02-09 01:30:00,3.3,0.6,29.84,SE,143,0.0,0.0,88,0.00,,,0.00,LWC V2.00 B2112,2013-02-09 10:30:00,
2013-02-09 01:35:00,2.9,0.2,29.84,SE,143,0.0,0.0,88,0.00,,,0.00,LWC V2.00 B2112,2013-02-09 10:35:00,
2013-02-09 01:40:00,2.7,0.0,29.84,SE,143,0.0,0.0,88,0.00,,,0.00,LWC V2.00 B2112,2013-02-09 10:40:00,
2013-02-09 01:45:00,2.4,-0.3,29.84,SE,143,0.0,0.0,88,0.00,,,0.00,LWC V2.00 B2112,2013-02-09 10:45:00,
2013-02-09 01:50:00,2.2,-0.8,29.83,SE,143,0.0,0.0,87,0.00,,,0.00,LWC V2.00 B2112,2013-02-09 10:50:00,
2013-02-09 01:55:00,2.1,-0.9,29.83,SE,142,0.0,0.0,87,0.00,,,0.00,LWC V2.00 B2112,2013-02-09 10:55:00,
2013-02-09 02:00:00,2.0,-1.0,29.83,SE,142,0.0,0.0,87,0.00,,,0.00,LWC V2.00 B2112,2013-02-09 11:00:00,
2013-02-09 02:05:00,1.8,-1.2,29.83,SE,143,0.0,0.0,87,0.00,,,0.00,LWC V2.00 B2112,2013-02-09 11:05:00,
2013-02-09 02:10:00,1.7,-1.3,29.83,SE,143,0.0,0.0,87,0.00,,,0.00,LWC V2.00 B2112,2013-02-09 11:10:00,
2013-02-09 02:15:00,1.5,-1.5,29.83,SE,143,0.0,0.0,87,0.00,,,0.00,LWC V2.00 B2112,2013-02-09 11:15:00,
2013-02-09 02:20:00,1.4,-1.6,29.82,SE,142,0.0,0.0,87,0.00,,,0.00,LWC V2.00 B2112,2013-02-09 11:20:00,
2013-02-09 02:25:00,1.2,-1.7,29.82,SE,143,0.0,0.0,87,0.00,,,0.00,LWC V2.00 B2112,2013-02-09 11:25:00,
2013-02-09 02:30:00,1.0,-1.9,29.82,SE,143,0.0,0.0,87,0.00,,,0.00,LWC V2.00 B2112,2013-02-09 11:30:00,
2013-02-09 02:35:00,0.8,-2.1,29.82,SE,142,0.0,0.0,87,0.00,,,0.00,LWC V2.00 B2112,2013-02-09 11:35:00,
2013-02-09 02:40:00,0.6,-2.3,29.82,SE,143,0.0,0.0,87,0.00,,,0.00,LWC V2.00 B2112,2013-02-09 11:40:00,
2013-02-09 02:45:00,0.4,-2.5,29.82,SE,143,0.0,0.0,87,0.00,,,0.00,LWC V2.00 B2112,2013-02-09 11:45:00,
2013-02-09 02:50:00,0.3,-2.6,29.81,SE,143,0.0,0.0,87,0.00,,,0.00,LWC V2.00 B2112,2013-02-09 11:50:00,
2013-02-09 02:55:00,0.2,-2.7,29.81,SE,142,0.0,0.0,87,0.00,,,0.00,LWC V2.00 B2112,2013-02-09 11:55:00,
2013-02-09 03:00:00,0.1,-2.8,29.81,SE,143,0.0,0.0,87,0.00,,,0.00,LWC V2.00 B2112,2013-02-09 12:00:00,
2013-02-09 03:05:00,-0.1,-3.0,29.80,SE,142,0.0,0.0,87,0.00,,,0.00,LWC V2.00 B2112,2013-02-09 12:05:00,
2013-02-09 03:10:00,-0.2,-3.1,29.80,SE,142,0.0,0.0,87,0.00,,,0.00,LWC V2.00 B2112,2013-02-09 12:10:00,
2013-02-09 03:15:00,-0.4,-3.3,29.80,SE,143,0.0,0.0,87,0.00,,,0.00,LWC V2.00 B2112,2013-02-09 12:15:00,
2013-02-09 03:20:00,-0.5,-3.4,29.80,SE,143,0.0,0.0,87,0.00,,,0.00,LWC V2.00 B2112,2013-02-09 12:20:00,
2013-02-09 03:25:00,-0.7,-3.6,29.80,SE,143,0.0,0.0,87,0.00,,,0.00,LWC V2.00 B2112,2013-02-09 12:25:00,
2013-02-09 03:30:00,-0.9,-3.8,29.80,SE,142,0.0,0.0,87,0.00,,,0.00,LWC V2.00 B2112,2013-02-09 12:30:00,
2013-02-09 03:35:00,-1.0,-3.9,29.80,SE,143,0.0,0.0,87,0.00,,,0.00,LWC V2.00 B2112,2013-02-09 12:35:00,
2013-02-09 03:40:00,-1.2,-4.4,29.79,SE,143,0.0,0.0,86,0.00,,,0.00,LWC V2.00 B2112,2013-02-09 12:40:00,
2013-02-09 03:45:00,-1.4,-4.5,29.79,SE,142,0.0,0.0,86,0.00,,,0.00,LWC V2.00 B2112,2013-02-09 12:45:00,
2013-02-09 03:50:00,-1.7,-4.8,29.78,SE,142,0.0,0.0,86,0.00,,,0.00,LWC V2.00 B2112,2013-02-09 12:50:00,
2013-02-09 03:55:00,-2.0,-5.1,29.78,SE,143,0.0,0.0,86,0.00,,,0.00,LWC V2.00 B2112,2013-02-09 12:55:00,
2013-02-09 04:00:00,-2.2,-5.3,29.78,SE,143,0.0,0.0,86,0.00,,,0.00,LWC V2.00 B2112,2013-02-09 13:00:00,
2013-02-09 04:05:00,-2.4,-5.5,29.77,SE,142,0.0,0.0,86,0.00,,,0.00,LWC V2.00 B2112,2013-02-09 13:05:00,
2013-02-09 04:10:00,-2.6,-5.7,29.77,SE,143,0.0,0.0,86,0.00,,,0.00,LWC V2.00 B2112,2013-02-09 13:10:00,
2013-02-09 04:15:00,-3.0,-6.1,29.76,SE,143,0.0,0.0,86,0.00,,,0.00,LWC V2.00 B2112,2013-02-09 13:15:00,
2013-02-09 04:20:00,-3.1,-6.2,29.76,SE,142,0.0,0.0,86,0.00,,,0.00,LWC V2.00 B2112,2013-02-09 13:20:00,
2013-02-09 04:25:00,-3.3,-6.4,29.75,SE,143,0.0,0.0,86,0.00,,,0.00,LWC V2.00 B2112,2013-02-09 13:25:00,
2013-02-09 04:30:00,-3.5,-6.6,29.75,SE,143,0.0,0.0,86,0.00,,,0.00,LWC V2.00 B2112,2013-02-09 13:30:00,
2013-02-09 04:35:00,-3.7,-6.8,29.75,SE,143,0.0,0.0,86,0.00,,,0.00,LWC V2.00 B2112,2013-02-09 13:35:00,
2013-02-09 04:40:00,-3.9,-7.0,29.74,SE,142,0.0,0.0,86,0.00,,,0.00,LWC V2.00 B2112,2013-02-09 13:40:00,
2013-02-09 04:45:00,-4.0,-7.1,29.74,SE,143,0.0,0.0,86,0.00,,,0.00,LWC V2.00 B2112,2013-02-09 13:45:00,
2013-02-09 04:50:00,-4.2,-7.5,29.74,SE,143,0.0,0.0,85,0.00,,,0.00,LWC V2.00 B2112,2013-02-09 13:50:00,
2013-02-09 04:55:00,-4.2,-7.5,29.74,SE,142,0.0,0.0,85,0.00,,,0.00,LWC V2.00 B2112,2013-02-09 13:55:00,
2013-02-09 05:00:00,-4.3,-7.6,29.74,SE,142,0.0,0.0,85,0.00,,,0.00,LWC V2.00 B2112,2013-02-09 14:00:00,
2013-02-09 05:05:00,-4.3,-7.6,29.74,SE,143,0.0,0.0,85,0.00,,,0.00,LWC V2.00 B2112,2013-02-09 14:05:00,
2013-02-09 05:10:00,-4.3,-7.6,29.73,SE,143,0.0,0.0,85,0.00,,,0.00,LWC V2.00 B2112,2013-02-09 14:10:00,
2013-02-09 05:15:00,-4.3,-7.6,29.73,SE,142,0.0,0.0,85,0.00,,,0.00,LWC V2.00 B2112,2013-02-09 14:15:00,
2013-02-09 05:20:00,-4.4,-7.7,29.73,SE,143,0.0,0.0,85,0.00,,,0.00,LWC V2.00 B2112,2013-02-09 14:20:00,
2013-02-09 05:25:00,-4.4,-7.5,29.72,SE,143,0.0,0.0,86,0.00,,,0.00,LWC V2.00 B2112,2013-02-09 14:25:00,
2013-02-09 05:30:00,-4.5,-7.6,29.72,SE,142,0.0,0.0,86,0.00,,,0.00,LWC V2.00 B2112,2013-02-09 14:30:00,
2013-02-09 05:35:00,-4.6,-7.7,29.72,SE,142,0.0,0.0,86,0.00,,,0.00,LWC V2.00 B2112,2013-02-09 14:35:00,
2013-02-09 05:40:00,-4.6,-7.7,29.71,SE,143,0.0,0.0,86,0.00,,,0.00,LWC V2.00 B2112,2013-02-09 14:40:00,
2013-02-09 05:45:00,-4.9,-8.2,29.71,SE,143,0.0,0.0,85,0.00,,,0.00,LWC V2.00 B2112,2013-02-09 14:45:00,
2013-02-09 05:50:00,-5.0,-8.3,29.70,SE,142,0.0,0.0,85,0.00,,,0.00,LWC V2.00 B2112,2013-02-09 14:50:00,
2013-02-09 05:55:00,-5.2,-8.5,29.70,SE,143,0.0,0.0,85,0.00,,,0.00,LWC V2.00 B2112,2013-02-09 14:55:00,
2013-02-09 06:00:00,-5.2,-8.5,29.70,SE,143,0.0,0.0,85,0.00,,,0.00,LWC V2.00 B2112,2013-02-09 15:00:00,
2013-02-09 06:05:00,-5.3,-8.6,29.70,SE,142,0.0,0.0,85,0.00,,,0.00,LWC V2.00 B2112,2013-02-09 15:05:00,
2013-02-09 06:10:00,-5.3,-8.6,29.69,SE,143,0.0,0.0,85,0.00,,,0.00,LWC V2.00 B2112,2013-02-09 15:10:00,
2013-02-09 06:15:00,-5.4,-8.7,29.68,SE,143,0.0,0.0,85,0.00,,,0.00,LWC V2.00 B2112,2013-02-09 15:15:00,
2013-02-09 06:20:00,-5.3,-8.6,29.68,SE,143,0.0,0.0,85,0.00,,,0.00,LWC V2.00 B2112,2013-02-09 15:20:00,
2013-02-09 06:25:00,-5.1,-8.4,29.68,SE,142,0.0,0.0,85,0.00,,,0.00,LWC V2.00 B2112,2013-02-09 15:25:00,
2013-02-09 06:30:00,-5.1,-8.2,29.67,SE,143,0.0,0.0,86,0.00,,,0.00,LWC V2.00 B2112,2013-02-09 15:30:00,
2013-02-09 06:35:00,-5.0,-8.3,29.67,SE,143,0.0,0.0,85,0.00,,,0.00,LWC V2.00 B2112,2013-02-09 15:35:00,
2013-02-09 06:40:00,-5.0,-8.3,29.66,SE,142,0.0,0.0,85,0.00,,,0.00,LWC V2.00 B2112,2013-02-09 15:40:00,
2013-02-09 06:45:00,-5.0,-8.3,29.65,SE,142,0.0,0.0,85,0.00,,,0.00,LWC V2.00 B2112,2013-02-09 15:45:00,
2013-02-09 06:50:00,-4.9,-8.0,29.65,SE,143,0.0,0.0,86,0.00,,,0.00,LWC V2.00 B2112,2013-02-09 15:50:00,
2013-02-09 06:55:00,-4.7,-7.8,29.65,SE,143,0.0,0.0,86,0.00,,,0.00,LWC V2.00 B2112,2013-02-09 15:55:00,
2013-02-09 07:00:00,-4.5,-7.6,29.64,SE,143,0.0,0.0,86,0.00,,,0.00,LWC V2.00 B2112,2013-02-09 16:00:00,
2013-02-09 07:05:00,-4.3,-7.4,29.64,SE,143,0.0,0.0,86,0.00,,,0.00,LWC V2.00 B2112,2013-02-09 16:05:00,
2013-02-09 07:10:00,-4.1,-7.2,29.64,SE,143,0.0,0.0,86,0.00,,,0.00,LWC V2.00 B2112,2013-02-09 16:10:00,
2013-02-09 07:15:00,-3.9,-7.0,29.64,SE,142,0.0,0.0,86,0.00,,,0.00,LWC V2.00 B2112,2013-02-09 16:15:00,
2013-02-09 07:20:00,-3.7,-6.8,29.64,SE,143,0.0,0.0,86,0.00,,,0.00,LWC V2.00 B2112,2013-02-09 16:20:00,
2013-02-09 07:25:00,-3.5,-6.6,29.64,SE,143,0.0,0.0,86,0.00,,,0.00,LWC V2.00 B2112,2013-02-09 16:25:00,
2013-02-09 07:30:00,-3.4,-6.5,29.64,SE,143,0.0,0.0,86,0.00,,,0.00,LWC V2.00 B2112,2013-02-09 16:30:00,
2013-02-09 07:35:00,-3.2,-6.3,29.64,SE,142,0.0,0.0,86,0.00,,,0.00,LWC V2.00 B2112,2013-02-09 16:35:00,
2013-02-09 07:40:00,-3.1,-6.2,29.64,SE,143,0.0,0.0,86,0.00,,,0.00,LWC V2.00 B2112,2013-02-09 16:40:00,
2013-02-09 07:45:00,-3.0,-6.1,29.63,SE,142,0.0,0.0,86,0.00,,,0.00,LWC V2.00 B2112,2013-02-09 16:45:00,
2013-02-09 07:50:00,-2.8,-5.9,29.64,SE,142,0.0,0.0,86,0.00,,,0.00,LWC V2.00 B2112,2013-02-09 16:50:00,
2013-02-09 07:55:00,-2.6,-5.7,29.63,SE,143,0.0,0.0,86,0.00,,,0.00,LWC V2.00 B2112,2013-02-09 16:55:00,
2013-02-09 08:00:00,-2.4,-5.3,29.62,SE,143,0.0,0.0,87,0.00,,,0.00,LWC V2.00 B2112,2013-02-09 17:00:00,
2013-02-09 08:05:00,-2.3,-5.2,29.61,SE,143,0.0,0.0,87,0.00,,,0.00,LWC V2.00 B2112,2013-02-09 17:05:00,
2013-02-09 08:10:00,-1.9,-4.8,29.61,SE,142,0.0,0.0,87,0.00,,,0.00,LWC V2.00 B2112,2013-02-09 17:10:00,
2013-02-09 08:15:00,-1.7,-4.6,29.60,SE,143,0.0,0.0,87,0.00,,,0.00,LWC V2.00 B2112,2013-02-09 17:15:00,
2013-02-09 08:20:00,-1.2,-4.1,29.61,SE,143,0.0,0.0,87,0.00,,,0.00,LWC V2.00 B2112,2013-02-09 17:20:00,
2013-02-09 08:25:00,-0.7,-3.6,29.61,SE,142,0.0,0.0,87,0.00,,,0.00,LWC V2.00 B2112,2013-02-09 17:25:00,
2013-02-09 08:30:00,-0.3,-3.2,29.61,SE,143,0.0,0.0,87,0.00,,,0.00,LWC V2.00 B2112,2013-02-09 17:30:00,
2013-02-09 08:35:00,0.0,-2.9,29.61,SE,143,0.0,0.0,87,0.00,,,0.00,LWC V2.00 B2112,2013-02-09 17:35:00,
2013-02-09 08:40:00,0.5,-2.4,29.61,SE,143,0.0,0.0,87,0.00,,,0.00,LWC V2.00 B2112,2013-02-09 17:40:00,
2013-02-09 08:45:00,1.2,-1.7,29.61,SE,142,0.0,0.0,87,0.00,,,0.00,LWC V2.00 B2112,2013-02-09 17:45:00,
2013-02-09 08:50:00,1.7,-1.0,29.61,SE,143,0.0,0.0,88,0.00,,,0.00,LWC V2.00 B2112,2013-02-09 17:50:00,
2013-02-09 08:55:00,2.0,-0.7,29.60,SE,143,0.0,0.0,88,0.00,,,0.00,LWC V2.00 B2112,2013-02-09 17:55:00,
2013-02-09 09:00:00,2.3,-0.4,29.60,SE,142,0.0,0.0,88,0.00,,,0.00,LWC V2.00 B2112,2013-02-09 18:00:00,
2013-02-09 09:05:00,2.4,-0.3,29.60,SE,143,0.0,0.0,88,0.00,,,0.00,LWC V2.00 B2112,2013-02-09 18:05:00,
2013-02-09 09:10:00,2.8,0.1,29.59,SE,143,0.0,0.0,88,0.00,,,0.00,LWC V2.00 B2112,2013-02-09 18:10:00,
2013-02-09 09:15:00,2.8,0.1,29.59,SE,143,0.0,0.0,88,0.00,,,0.00,LWC V2.00 B2112,2013-02-09 18:15:00,
2013-02-09 09:20:00,3.0,0.3,29.58,SE,142,0.0,0.0,88,0.00,,,0.00,LWC V2.00 B2112,2013-02-09 18:20:00,
2013-02-09 09:25:00,3.3,0.6,29.57,SE,143,0.0,0.0,88,0.00,,,0.00,LWC V2.00 B2112,2013-02-09 18:25:00,
2013-02-09 09:30:00,3.7,1.0,29.57,SE,142,0.0,0.0,88,0.00,,,0.00,LWC V2.00 B2112,2013-02-09 18:30:00,
2013-02-09 09:35:00,4.0,1.3,29.57,SE,142,0.0,0.0,88,0.00,,,0.00,LWC V2.00 B2112,2013-02-09 18:35:00,
2013-02-09 09:40:00,4.3,1.5,29.56,SE,143,0.0,0.0,88,0.00,,,0.00,LWC V2.00 B2112,2013-02-09 18:40:00,
2013-02-09 09:45:00,4.5,1.7,29.55,SE,143,0.0,0.0,88,0.00,,,0.00,LWC V2.00 B2112,2013-02-09 18:45:00,
2013-02-09 09:50:00,4.9,2.1,29.54,SE,143,0.0,0.0,88,0.00,,,0.00,LWC V2.00 B2112,2013-02-09 18:50:00,
2013-02-09 09:55:00,5.2,2.4,29.53,SE,142,0.0,0.0,88,0.00,,,0.00,LWC V2.00 B2112,2013-02-09 18:55:00,
2013-02-09 10:00:00,5.4,2.6,29.53,SE,143,0.0,0.0,88,0.00,,,0.00,LWC V2.00 B2112,2013-02-09 19:00:00,
2013-02-09 10:05:00,5.5,2.7,29.52,SE,142,0.0,0.0,88,0.00,,,0.00,LWC V2.00 B2112,2013-02-09 19:05:00,
2013-02-09 10:10:00,5.6,2.8,29.52,SE,142,0.0,0.0,88,0.00,,,0.00,LWC V2.00 B2112,2013-02-09 19:10:00,
2013-02-09 10:15:00,5.8,3.0,29.52,SE,143,0.0,0.0,88,0.00,,,0.00,LWC V2.00 B2112,2013-02-09 19:15:00,
2013-02-09 10:20:00,6.1,3.3,29.52,SE,143,0.0,0.0,88,0.00,,,0.00,LWC V2.00 B2112,2013-02-09 19:20:00,
2013-02-09 10:25:00,6.3,3.5,29.51,SE,143,0.0,0.0,88,0.00,,,0.00,LWC V2.00 B2112,2013-02-09 19:25:00,
2013-02-09 10:30:00,6.7,3.9,29.51,SE,142,0.0,0.0,88,0.00,,,0.00,LWC V2.00 B2112,2013-02-09 19:30:00,
2013-02-09 10:35:00,7.1,4.3,29.51,SE,143,0.0,0.0,88,0.00,,,0.00,LWC V2.00 B2112,2013-02-09 19:35:00,
2013-02-09 10:40:00,7.6,5.1,29.51,SE,143,0.0,0.0,89,0.00,,,0.00,LWC V2.00 B2112,2013-02-09 19:40:00,
2013-02-09 10:45:00,8.0,5.4,29.50,SE,142,0.0,0.0,89,0.00,,,0.00,LWC V2.00 B2112,2013-02-09 19:45:00,
2013-02-09 10:50:00,8.1,5.3,29.49,SE,143,0.0,0.0,88,0.00,,,0.00,LWC V2.00 B2112,2013-02-09 19:50:00,
2013-02-09 10:55:00,8.2,5.4,29.48,SE,143,0.0,0.0,88,0.00,,,0.00,LWC V2.00 B2112,2013-02-09 19:55:00,
2013-02-09 11:00:00,8.4,5.8,29.47,SE,143,0.0,0.0,89,0.00,,,0.00,LWC V2.00 B2112,2013-02-09 20:00:00,
2013-02-09 11:05:00,8.6,6.0,29.47,SE,142,0.0,0.0,89,0.00,,,0.00,LWC V2.00 B2112,2013-02-09 20:05:00,
2013-02-09 11:10:00,8.8,6.0,29.47,SE,143,0.0,0.0,88,0.00,,,0.00,LWC V2.00 B2112,2013-02-09 20:10:00,
2013-02-09 11:15:00,9.0,6.4,29.47,SE,143,0.0,0.0,89,0.00,,,0.00,LWC V2.00 B2112,2013-02-09 20:15:00,
2013-02-09 11:20:00,9.3,6.7,29.47,SE,142,0.0,0.0,89,0.00,,,0.00,LWC V2.00 B2112,2013-02-09 20:20:00,
2013-02-09 11:25:00,9.3,6.7,29.46,SE,143,0.0,0.0,89,0.00,,,0.00,LWC V2.00 B2112,2013-02-09 20:25:00,
2013-02-09 11:30:00,9.4,6.8,29.45,SE,143,0.0,0.0,89,0.00,,,0.00,LWC V2.00 B2112,2013-02-09 20:30:00,
2013-02-09 11:35:00,9.5,6.7,29.45,SE,143,0.0,0.0,88,0.00,,,0.00,LWC V2.00 B2112,2013-02-09 20:35:00,
2013-02-09 11:40:00,9.9,7.3,29.45,SE,142,0.0,0.0,89,0.00,,,0.00,LWC V2.00 B2112,2013-02-09 20:40:00,
2013-02-09 11:45:00,11.1,8.5,29.45,SE,143,0.0,0.0,89,0.00,,,0.00,LWC V2.00 B2112,2013-02-09 20:45:00,
2013-02-09 11:50:00,12.1,9.5,29.44,SE,143,0.0,0.0,89,0.00,,,0.00,LWC V2.00 B2112,2013-02-09 20:50:00,
2013-02-09 11:55:00,12.8,10.2,29.44,SE,142,0.0,0.0,89,0.00,,,0.00,LWC V2.00 B2112,2013-02-09 20:55:00,
2013-02-09 12:00:00,13.2,10.6,29.44,SE,143,0.0,0.0,89,0.00,,,0.00,LWC V2.00 B2112,2013-02-09 21:00:00,
2013-02-09 12:05:00,13.9,11.3,29.44,SE,143,0.0,0.0,89,0.00,,,0.00,LWC V2.00 B2112,2013-02-09 21:05:00,
2013-02-09 12:10:00,14.3,11.4,29.42,SE,143,0.0,0.0,88,0.00,,,0.00,LWC V2.00 B2112,2013-02-09 21:10:00,
2013-02-09 12:15:00,14.5,11.9,29.43,SE,142,0.0,0.0,89,0.00,,,0.00,LWC V2.00 B2112,2013-02-09 21:15:00,
2013-02-09 12:20:00,14.6,12.0,29.42,SE,143,0.0,0.0,89,0.00,,,0.00,LWC V2.00 B2112,2013-02-09 21:20:00,
2013-02-09 12:25:00,14.7,12.1,29.42,SE,143,0.0,0.0,89,0.00,,,0.00,LWC V2.00 B2112,2013-02-09 21:25:00,
2013-02-09 12:30:00,15.3,12.4,29.42,SE,142,0.0,0.0,88,0.00,,,0.00,LWC V2.00 B2112,2013-02-09 21:30:00,
2013-02-09 12:35:00,16.1,13.2,29.42,SE,143,0.0,0.0,88,0.00,,,0.00,LWC V2.00 B2112,2013-02-09 21:35:00,
2013-02-09 12:40:00,16.6,13.9,29.41,SE,143,0.0,0.0,89,0.00,,,0.00,LWC V2.00 B2112,2013-02-09 21:40:00,
2013-02-09 12:45:00,16.9,14.0,29.40,SE,143,0.0,0.0,88,0.00,,,0.00,LWC V2.00 B2112,2013-02-09 21:45:00,
2013-02-09 12:50:00,17.0,14.1,29.40,SE,142,0.0,0.0,88,0.00,,,0.00,LWC V2.00 B2112,2013-02-09 21:50:00,
2013-02-09 12:55:00,17.0,14.3,29.39,SE,143,0.0,0.0,89,0.00,,,0.00,LWC V2.00 B2112,2013-02-09 21:55:00,
2013-02-09 13:00:00,17.4,14.7,29.39,SE,143,0.0,0.0,89,0.00,,,0.00,LWC V2.00 B2112,2013-02-09 22:00:00,
2013-02-09 13:05:00,17.5,14.8,29.38,SE,142,0.0,0.0,89,0.00,,,0.00,LWC V2.00 B2112,2013-02-09 22:05:00,
2013-02-09 13:10:00,17.7,15.0,29.38,SE,143,0.0,0.0,89,0.00,,,0.00,LWC V2.00 B2112,2013-02-09 22:10:00,
2013-02-09 13:15:00,17.9,15.2,29.38,SE,143,0.0,0.0,89,0.00,,,0.00,LWC V2.00 B2112,2013-02-09 22:15:00,
2013-02-09 13:20:00,18.1,15.4,29.37,SE,142,0.0,0.0,89,0.00,,,0.00,LWC V2.00 B2112,2013-02-09 22:20:00,
2013-02-09 13:25:00,18.5,15.8,29.38,SE,143,0.0,0.0,89,0.00,,,0.00,LWC V2.00 B2112,2013-02-09 22:25:00,
2013-02-09 13:30:00,18.9,16.2,29.37,SE,143,0.0,0.0,89,0.00,,,0.00,LWC V2.00 B2112,2013-02-09 22:30:00,
2013-02-09 13:35:00,19.4,16.4,29.37,SE,142,0.0,0.0,88,0.00,,,0.00,LWC V2.00 B2112,2013-02-09 22:35:00,
2013-02-09 13:40:00,20.5,17.5,29.37,ESE,110,0.0,2.0,88,0.00,,,0.00,LWC V2.00 B2112,2013-02-09 22:40:00,
2013-02-09 13:45:00,20.8,18.1,29.37,ESE,110,0.0,0.0,89,0.00,,,0.00,LWC V2.00 B2112,2013-02-09 22:45:00,
2013-02-09 13:50:00,21.0,18.0,29.37,ESE,110,0.0,0.0,88,0.00,,,0.00,LWC V2.00 B2112,2013-02-09 22:50:00,
2013-02-09 13:55:00,21.0,18.0,29.36,ESE,110,0.0,0.0,88,0.00,,,0.00,LWC V2.00 B2112,2013-02-09 22:55:00,
2013-02-09 14:00:00,21.3,18.3,29.36,ESE,110,0.0,0.0,88,0.00,,,0.00,LWC V2.00 B2112,2013-02-09 23:00:00,
2013-02-09 14:05:00,21.5,18.8,29.36,ESE,110,0.0,0.0,89,0.00,,,0.00,LWC V2.00 B2112,2013-02-09 23:05:00,
2013-02-09 14:10:00,21.6,18.9,29.35,ESE,110,0.0,0.0,89,0.00,,,0.00,LWC V2.00 B2112,2013-02-09 23:10:00,
2013-02-09 14:15:00,21.6,18.9,29.35,ESE,110,0.0,0.0,89,0.00,,,0.00,LWC V2.00 B2112,2013-02-09 23:15:00,
2013-02-09 14:20:00,21.6,18.6,29.35,ESE,110,0.0,0.0,88,0.00,,,0.00,LWC V2.00 B2112,2013-02-09 23:20:00,
2013-02-09 14:25:00,21.9,18.9,29.35,ESE,110,0.0,0.0,88,0.00,,,0.00,LWC V2.00 B2112,2013-02-09 23:25:00,
2013-02-09 14:30:00,22.3,19.6,29.35,ESE,110,0.0,0.0,89,0.00,,,0.00,LWC V2.00 B2112,2013-02-09 23:30:00,
2013-02-09 14:35:00,22.6,19.9,29.35,ESE,110,0.0,0.0,89,0.00,,,0.00,LWC V2.00 B2112,2013-02-09 23:35:00,
2013-02-09 14:40:00,24.4,21.4,29.35,ESE,110,0.0,0.0,88,0.00,,,0.00,LWC V2.00 B2112,2013-02-09 23:40:00,
2013-02-09 14:45:00,25.5,22.5,29.34,ESE,110,0.0,0.0,88,0.00,,,0.00,LWC V2.00 B2112,2013-02-09 23:45:00,
2013-02-09 14:50:00,26.2,23.1,29.34,ESE,111,0.0,0.0,88,0.00,,,0.00,LWC V2.00 B2112,2013-02-09 23:50:00,
2013-02-09 14:55:00,26.8,24.0,29.33,South,184,0.0,0.0,89,0.00,,,0.00,LWC V2.00 B2112,2013-02-09 23:55:00,
2013-02-09 15:00:00,27.0,23.9,29.33,SSW,205,0.0,0.0,88,0.00,,,0.00,LWC V2.00 B2112,2013-02-10 00:00:00,
2013-02-09 15:05:00,27.0,23.9,29.33,SSW,205,0.0,0.0,88,0.00,,,0.00,LWC V2.00 B2112,2013-02-10 00:05:00,
2013-02-09 15:10:00,27.1,24.0,29.33,SSW,205,0.0,0.0,88,0.00,,,0.00,LWC V2.00 B2112,2013-02-10 00:10:00,
2013-02-09 15:15:00,27.1,24.0,29.32,SSW,205,0.0,0.0,88,0.00,,,0.00,LWC V2.00 B2112,2013-02-10 00:15:00,
2013-02-09 15:20:00,27.4,24.3,29.32,SSW,205,0.0,0.0,88,0.00,,,0.00,LWC V2.00 B2112,2013-02-10 00:20:00,
2013-02-09 15:25:00,28.2,25.1,29.32,SSW,204,0.0,0.0,88,0.00,,,0.00,LWC V2.00 B2112,2013-02-10 00:25:00,
2013-02-09 15:30:00,28.5,25.4,29.31,SSW,205,0.0,0.0,88,0.00,,,0.00,LWC V2.00 B2112,2013-02-10 00:30:00,
2013-02-09 15:35:00,28.3,25.2,29.30,SSW,205,0.0,0.0,88,0.00,,,0.00,LWC V2.00 B2112,2013-02-10 00:35:00,
2013-02-09 15:40:00,28.4,25.0,29.30,SSW,205,0.0,0.0,87,0.00,,,0.00,LWC V2.00 B2112,2013-02-10 00:40:00,
2013-02-09 15:45:00,28.4,25.0,29.29,SSW,205,0.0,0.0,87,0.00,,,0.00,LWC V2.00 B2112,2013-02-10 00:45:00,
2013-02-09 15:50:00,27.9,24.3,29.29,SSW,205,0.0,0.0,86,0.00,,,0.00,LWC V2.00 B2112,2013-02-10 00:50:00,
2013-02-09 15:55:00,27.9,24.3,29.28,SSW,205,0.0,0.0,86,0.00,,,0.00,LWC V2.00 B2112,2013-02-10 00:55:00,
2013-02-09 16:00:00,27.7,24.3,29.28,SW,225,0.0,1.0,87,0.00,,,0.00,LWC V2.00 B2112,2013-02-10 01:00:00,
2013-02-09 16:05:00,27.7,24.3,29.27,SW,225,0.0,0.0,87,0.00,,,0.00,LWC V2.00 B2112,2013-02-10 01:05:00,
2013-02-09 16:10:00,27.7,24.1,29.28,SW,225,0.0,0.0,86,0.00,,,0.00,LWC V2.00 B2112,2013-02-10 01:10:00,
2013-02-09 16:15:00,27.2,23.6,29.28,SW,225,0.0,0.0,86,0.00,,,0.00,LWC V2.00 B2112,2013-02-10 01:15:00,
2013-02-09 16:20:00,27.4,24.0,29.28,SW,224,0.0,0.0,87,0.00,,,0.00,LWC V2.00 B2112,2013-02-10 01:20:00,
2013-02-09 16:25:00,27.1,23.8,29.28,SW,224,0.0,0.0,87,0.00,,,0.00,LWC V2.00 B2112,2013-02-10 01:25:00,
2013-02-09 16:30:00,26.9,23.6,29.27,SW,224,0.0,0.0,87,0.00,,,0.00,LWC V2.00 B2112,2013-02-10 01:30:00,
2013-02-09 16:35:00,25.8,22.5,29.27,SW,224,0.0,0.0,87,0.00,,,0.00,LWC V2.00 B2112,2013-02-10 01:35:00,
2013-02-09 16:40:00,24.7,21.4,29.27,SW,224,0.0,0.0,87,0.00,,,0.00,LWC V2.00 B2112,2013-02-10 01:40:00,
2013-02-09 16:45:00,23.9,20.6,29.26,SW,224,0.0,0.0,87,0.00,,,0.00,LWC V2.00 B2112,2013-02-10 01:45:00,
2013-02-09 16:50:00,23.3,20.0,29.25,SW,224,0.0,0.0,87,0.00,,,0.00,LWC V2.00 B2112,2013-02-10 01:50:00,
2013-02-09 16:55:00,23.2,20.2,29.25,SW,224,0.0,0.0,88,0.00,,,0.00,LWC V2.00 B2112,2013-02-10 01:55:00,
2013-02-09 17:00:00,22.6,19.6,29.24,SW,224,0.0,0.0,88,0.00,,,0.00,LWC V2.00 B2112,2013-02-10 02:00:00,
2013-02-09 17:05:00,21.7,18.7,29.25,SW,224,0.0,0.0,88,0.00,,,0.00,LWC V2.00 B2112,2013-02-10 02:05:00,
2013-02-09 17:10:00,21.3,18.3,29.24,SW,224,0.0,0.0,88,0.00,,,0.00,LWC V2.00 B2112,2013-02-10 02:10:00,
2013-02-09 17:15:00,21.2,18.2,29.23,SW,224,0.0,0.0,88,0.00,,,0.00,LWC V2.00 B2112,2013-02-10 02:15:00,
2013-02-09 17:20:00,20.9,18.2,29.23,SW,224,0.0,0.0,89,0.00,,,0.00,LWC V2.00 B2112,2013-02-10 02:20:00,
2013-02-09 17:25:00,20.6,17.9,29.24,SW,224,0.0,0.0,89,0.00,,,0.00,LWC V2.00 B2112,2013-02-10 02:25:00,
2013-02-09 17:30:00,20.3,17.6,29.24,SW,224,0.0,0.0,89,0.00,,,0.00,LWC V2.00 B2112,2013-02-10 02:30:00,
2013-02-09 17:35:00,21.1,18.1,29.23,SW,224,0.0,0.0,88,0.00,,,0.00,LWC V2.00 B2112,2013-02-10 02:35:00,
2013-02-09 17:40:00,21.0,18.0,29.23,SW,224,0.0,0.0,88,0.00,,,0.00,LWC V2.00 B2112,2013-02-10 02:40:00,
2013-02-09 17:45:00,20.5,17.5,29.23,SW,224,0.0,0.0,88,0.00,,,0.00,LWC V2.00 B2112,2013-02-10 02:45:00,
2013-02-09 17:50:00,20.7,17.7,29.23,SW,224,0.0,0.0,88,0.00,,,0.00,LWC V2.00 B2112,2013-02-10 02:50:00,
2013-02-09 17:55:00,20.8,17.8,29.22,SW,224,0.0,0.0,88,0.00,,,0.00,LWC V2.00 B2112,2013-02-10 02:55:00,
2013-02-09 18:00:00,20.0,17.0,29.23,SW,224,0.0,0.0,88,0.00,,,0.00,LWC V2.00 B2112,2013-02-10 03:00:00,
2013-02-09 18:05:00,19.7,16.7,29.22,SW,224,0.0,0.0,88,0.00,,,0.00,LWC V2.00 B2112,2013-02-10 03:05:00,
2013-02-09 18:10:00,20.6,17.6,29.22,SW,224,0.0,0.0,88,0.00,,,0.00,LWC V2.00 B2112,2013-02-10 03:10:00,
2013-02-09 18:15:00,20.4,17.4,29.22,SW,224,0.0,0.0,88,0.00,,,0.00,LWC V2.00 B2112,2013-02-10 03:15:00,
2013-02-09 18:20:00,19.7,16.7,29.21,SW,224,0.0,0.0,88,0.00,,,0.00,LWC V2.00 B2112,2013-02-10 03:20:00,
2013-02-09 18:25:00,19.1,16.1,29.20,SW,224,0.0,0.0,88,0.00,,,0.00,LWC V2.00 B2112,2013-02-10 03:25:00,
2013-02-09 18:30:00,18.2,15.5,29.20,SW,224,0.0,0.0,89,0.00,,,0.00,LWC V2.00 B2112,2013-02-10 03:30:00,
2013-02-09 18:35:00,17.4,14.5,29.19,SW,224,0.0,0.0,88,0.00,,,0.00,LWC V2.00 B2112,2013-02-10 03:35:00,
2013-02-09 18:40:00,17.1,14.2,29.19,SW,224,0.0,0.0,88,0.00,,,0.00,LWC V2.00 B2112,2013-02-10 03:40:00,
2013-02-09 18:45:00,17.0,14.1,29.18,SW,224,0.0,0.0,88,0.00,,,0.00,LWC V2.00 B2112,2013-02-10 03:45:00,
2013-02-09 18:50:00,16.7,14.0,29.18,SW,224,0.0,0.0,89,0.00,,,0.00,LWC V2.00 B2112,2013-02-10 03:50:00,
2013-02-09 18:55:00,16.2,13.5,29.19,SW,224,0.0,0.0,89,0.00,,,0.00,LWC V2.00 B2112,2013-02-10 03:55:00,
2013-02-09 19:00:00,16.0,13.1,29.19,SW,224,0.0,0.0,88,0.00,,,0.00,LWC V2.00 B2112,2013-02-10 04:00:00,
2013-02-09 19:05:00,16.2,13.5,29.19,SW,224,0.0,0.0,89,0.00,,,0.00,LWC V2.00 B2112,2013-02-10 04:05:00,
2013-02-09 19:10:00,16.3,13.4,29.19,SW,224,0.0,0.0,88,0.00,,,0.00,LWC V2.00 B2112,2013-02-10 04:10:00,
2013-02-09 19:15:00,16.3,13.4,29.18,SW,224,0.0,0.0,88,0.00,,,0.00,LWC V2.00 B2112,2013-02-10 04:15:00,
2013-02-09 19:20:00,16.1,13.2,29.18,SW,224,0.0,0.0,88,0.00,,,0.00,LWC V2.00 B2112,2013-02-10 04:20:00,
2013-02-09 19:25:00,15.7,13.0,29.18,SW,224,0.0,0.0,89,0.00,,,0.00,LWC V2.00 B2112,2013-02-10 04:25:00,
2013-02-09 19:30:00,15.5,12.8,29.17,SW,224,0.0,0.0,89,0.00,,,0.00,LWC V2.00 B2112,2013-02-10 04:30:00,
2013-02-09 19:35:00,15.7,13.0,29.17,SW,224,0.0,0.0,89,0.00,,,0.00,LWC V2.00 B2112,2013-02-10 04:35:00,
2013-02-09 19:40:00,16.0,13.1,29.17,SW,224,0.0,0.0,88,0.00,,,0.00,LWC V2.00 B2112,2013-02-10 04:40:00,
2013-02-09 19:45:00,17.1,14.2,29.17,SW,224,0.0,0.0,88,0.00,,,0.00,LWC V2.00 B2112,2013-02-10 04:45:00,
2013-02-09 19:50:00,17.7,14.8,29.17,SW,224,0.0,0.0,88,0.00,,,0.00,LWC V2.00 B2112,2013-02-10 04:50:00,
2013-02-09 19:55:00,18.4,15.5,29.17,SW,224,0.0,0.0,88,0.00,,,0.00,LWC V2.00 B2112,2013-02-10 04:55:00,
2013-02-09 20:00:00,18.6,15.6,29.16,SW,224,0.0,0.0,88,0.00,,,0.00,LWC V2.00 B2112,2013-02-10 05:00:00,
2013-02-09 20:05:00,18.2,15.3,29.16,SW,224,0.0,0.0,88,0.00,,,0.00,LWC V2.00 B2112,2013-02-10 05:05:00,
2013-02-09 20:10:00,17.9,15.0,29.15,SW,224,0.0,0.0,88,0.00,,,0.00,LWC V2.00 B2112,2013-02-10 05:10:00,
2013-02-09 20:15:00,17.7,14.8,29.15,SW,224,0.0,0.0,88,0.00,,,0.00,LWC V2.00 B2112,2013-02-10 05:15:00,
2013-02-09 20:20:00,17.8,14.9,29.15,SW,224,0.0,0.0,88,0.00,,,0.00,LWC V2.00 B2112,2013-02-10 05:20:00,
2013-02-09 20:25:00,18.0,15.1,29.15,SW,224,0.0,0.0,88,0.00,,,0.00,LWC V2.00 B2112,2013-02-10 05:25:00,
2013-02-09 20:30:00,18.1,15.2,29.15,SW,224,0.0,0.0,88,0.00,,,0.00,LWC V2.00 B2112,2013-02-10 05:30:00,
2013-02-09 20:35:00,18.5,15.6,29.15,SW,224,0.0,0.0,88,0.00,,,0.00,LWC V2.00 B2112,2013-02-10 05:35:00,
2013-02-09 20:40:00,19.2,16.2,29.15,SW,224,0.0,0.0,88,0.00,,,0.00,LWC V2.00 B2112,2013-02-10 05:40:00,
2013-02-09 20:45:00,19.1,16.1,29.15,SW,224,0.0,0.0,88,0.00,,,0.00,LWC V2.00 B2112,2013-02-10 05:45:00,
2013-02-09 20:50:00,18.9,15.9,29.15,SW,224,0.0,0.0,88,0.00,,,0.00,LWC V2.00 B2112,2013-02-10 05:50:00,
2013-02-09 20:55:00,18.8,15.8,29.14,SW,224,0.0,0.0,88,0.00,,,0.00,LWC V2.00 B2112,2013-02-10 05:55:00,
2013-02-09 21:00:00,18.7,15.7,29.13,SW,224,0.0,0.0,88,0.00,,,0.00,LWC V2.00 B2112,2013-02-10 06:00:00,
2013-02-09 21:05:00,18.6,15.6,29.13,SW,224,0.0,0.0,88,0.00,,,0.00,LWC V2.00 B2112,2013-02-10 06:05:00,
2013-02-09 21:10:00,18.8,15.8,29.13,SW,224,0.0,0.0,88,0.00,,,0.00,LWC V2.00 B2112,2013-02-10 06:10:00,
2013-02-09 21:15:00,18.9,15.9,29.13,SW,224,0.0,0.0,88,0.00,,,0.00,LWC V2.00 B2112,2013-02-10 06:15:00,
2013-02-09 21:20:00,18.8,15.8,29.13,SW,224,0.0,0.0,88,0.00,,,0.00,LWC V2.00 B2112,2013-02-10 06:20:00,
2013-02-09 21:25:00,18.9,15.9,29.13,SW,220,1.0,1.0,88,0.00,,,0.00,LWC V2.00 B2112,2013-02-10 06:25:00,
2013-02-09 21:30:00,19.0,16.0,29.13,SW,220,0.0,0.0,88,0.00,,,0.00,LWC V2.00 B2112,2013-02-10 06:30:00,
2013-02-09 21:35:00,19.1,16.1,29.12,SW,219,0.0,0.0,88,0.00,,,0.00,LWC V2.00 B2112,2013-02-10 06:35:00,
2013-02-09 21:40:00,18.9,15.9,29.11,SW,220,0.0,0.0,88,0.00,,,0.00,LWC V2.00 B2112,2013-02-10 06:40:00,
2013-02-09 21:45:00,19.0,16.0,29.11,SW,220,0.0,0.0,88,0.00,,,0.00,LWC V2.00 B2112,2013-02-10 06:45:00,
2013-02-09 21:50:00,19.4,16.4,29.11,SW,219,0.0,0.0,88,0.00,,,0.00,LWC V2.00 B2112,2013-02-10 06:50:00,
2013-02-09 21:55:00,19.4,16.4,29.11,SW,219,0.0,0.0,88,0.00,,,0.00,LWC V2.00 B2112,2013-02-10 06:55:00,
2013-02-09 22:00:00,19.6,16.6,29.11,SW,220,0.0,0.0,88,0.00,,,0.00,LWC V2.00 B2112,2013-02-10 07:00:00,
2013-02-09 22:05:00,19.4,16.4,29.11,SW,220,0.0,0.0,88,0.00,,,0.00,LWC V2.00 B2112,2013-02-10 07:05:00,
2013-02-09 22:10:00,20.0,17.0,29.11,ENE,68,0.0,2.0,88,0.00,,,0.00,LWC V2.00 B2112,2013-02-10 07:10:00,
2013-02-09 22:15:00,20.4,17.4,29.11,ENE,68,0.0,0.0,88,0.00,,,0.00,LWC V2.00 B2112,2013-02-10 07:15:00,
2013-02-09 22:20:00,20.6,17.6,29.11,ENE,68,0.0,0.0,88,0.00,,,0.00,LWC V2.00 B2112,2013-02-10 07:20:00,
2013-02-09 22:25:00,20.7,17.7,29.10,ENE,68,0.0,0.0,88,0.00,,,0.00,LWC V2.00 B2112,2013-02-10 07:25:00,
2013-02-09 22:30:00,21.0,18.0,29.11,ENE,68,0.0,1.0,88,0.00,,,0.00,LWC V2.00 B2112,2013-02-10 07:30:00,
2013-02-09 22:35:00,21.2,18.2,29.10,ENE,68,0.0,0.0,88,0.00,,,0.00,LWC V2.00 B2112,2013-02-10 07:35:00,
2013-02-09 22:40:00,20.9,17.9,29.10,ENE,68,0.0,0.0,88,0.00,,,0.00,LWC V2.00 B2112,2013-02-10 07:40:00,
2013-02-09 22:45:00,21.1,18.1,29.11,ENE,68,0.0,0.0,88,0.00,,,0.00,LWC V2.00 B2112,2013-02-10 07:45:00,
2013-02-09 22:50:00,20.9,17.9,29.09,ENE,68,1.0,1.0,88,0.00,,,0.00,LWC V2.00 B2112,2013-02-10 07:50:00,
2013-02-09 22:55:00,20.6,17.6,29.08,South,169,0.0,0.0,88,0.00,,,0.00,LWC V2.00 B2112,2013-02-10 07:55:00,
2013-02-09 23:00:00,21.2,18.2,29.09,ENE,68,0.0,0.0,88,0.00,,,0.00,LWC V2.00 B2112,2013-02-10 08:00:00,
2013-02-09 23:05:00,21.1,18.1,29.08,ENE,68,0.0,0.0,88,0.00,,,0.00,LWC V2.00 B2112,2013-02-10 08:05:00,
2013-02-09 23:10:00,21.2,18.2,29.08,ENE,68,0.0,0.0,88,0.00,,,0.00,LWC V2.00 B2112,2013-02-10 08:10:00,
2013-02-09 23:15:00,21.2,18.2,29.08,ENE,68,0.0,0.0,88,0.00,,,0.00,LWC V2.00 B2112,2013-02-10 08:15:00,
2013-02-09 23:20:00,21.3,18.3,29.08,ENE,68,0.0,0.0,88,0.00,,,0.00,LWC V2.00 B2112,2013-02-10 08:20:00,
2013-02-09 23:25:00,21.3,18.3,29.07,ENE,68,0.0,0.0,88,0.00,,,0.00,LWC V2.00 B2112,2013-02-10 08:25:00,
2013-02-09 23:30:00,21.3,18.3,29.07,ENE,68,0.0,0.0,88,0.00,,,0.00,LWC V2.00 B2112,2013-02-10 08:30:00,
2013-02-09 23:35:00,21.7,18.7,29.07,ENE,68,0.0,0.0,88,0.00,,,0.00,LWC V2.00 B2112,2013-02-10 08:35:00,
2013-02-09 23:40:00,22.1,19.1,29.07,ENE,68,0.0,0.0,88,0.00,,,0.00,LWC V2.00 B2112,2013-02-10 08:40:00,
2013-02-09 23:45:00,22.1,19.1,29.07,ENE,68,0.0,0.0,88,0.00,,,0.00,LWC V2.00 B2112,2013-02-10 08:45:00,
2013-02-09 23:50:00,22.2,19.2,29.07,ENE,68,0.0,0.0,88,0.00,,,0.00,LWC V2.00 B2112,2013-02-10 08:50:00,
2013-02-09 23:55:00,22.0,19.0,29.07,ENE,68,0.0,0.0,88,0.00,,,0.00,LWC V2.00 B2112,2013-02-10 08:55:00,